sensor_id;sensor_type;location;lat;lon;timestamp;temperature;humidity
41694;DHT22;27377;50.666;9.150;2023-06-10T00:02:05;13.80;99.90
41694;DHT22;27377;50.666;9.150;2023-06-10T00:04:31;13.80;99.90
41694;DHT22;27377;50.666;9.150;2023-06-10T00:06:56;13.80;99.90
41694;DHT22;27377;50.666;9.150;2023-06-10T00:09:22;13.80;99.90
41694;DHT22;27377;50.666;9.150;2023-06-10T00:11:48;13.70;99.90
41694;DHT22;27377;50.666;9.150;2023-06-10T00:14:14;13.70;99.90
41694;DHT22;27377;50.666;9.150;2023-06-10T00:16:40;13.60;99.90
41694;DHT22;27377;50.666;9.150;2023-06-10T00:19:06;13.50;99.90
41694;DHT22;27377;50.666;9.150;2023-06-10T00:21:34;13.50;99.90
41694;DHT22;27377;50.666;9.150;2023-06-10T00:24:06;13.50;99.90
41694;DHT22;27377;50.666;9.150;2023-06-10T00:26:32;13.40;99.90
41694;DHT22;27377;50.666;9.150;2023-06-10T00:28:59;13.40;99.90
41694;DHT22;27377;50.666;9.150;2023-06-10T00:31:25;13.40;99.90
41694;DHT22;27377;50.666;9.150;2023-06-10T00:33:52;13.30;99.90
41694;DHT22;27377;50.666;9.150;2023-06-10T00:36:17;13.40;99.90
41694;DHT22;27377;50.666;9.150;2023-06-10T00:38:43;13.40;99.90
41694;DHT22;27377;50.666;9.150;2023-06-10T00:41:09;13.30;99.90
41694;DHT22;27377;50.666;9.150;2023-06-10T00:43:35;13.30;99.90
41694;DHT22;27377;50.666;9.150;2023-06-10T00:46:00;13.20;99.90
41694;DHT22;27377;50.666;9.150;2023-06-10T00:48:27;13.20;99.90
41694;DHT22;27377;50.666;9.150;2023-06-10T00:50:53;13.20;99.90
41694;DHT22;27377;50.666;9.150;2023-06-10T00:53:19;13.20;99.90
41694;DHT22;27377;50.666;9.150;2023-06-10T00:55:44;13.20;99.90
41694;DHT22;27377;50.666;9.150;2023-06-10T00:58:10;13.30;99.90
41694;DHT22;27377;50.666;9.150;2023-06-10T01:00:36;13.30;99.90
41694;DHT22;27377;50.666;9.150;2023-06-10T01:03:02;13.30;99.90
41694;DHT22;27377;50.666;9.150;2023-06-10T01:05:33;13.30;99.90
41694;DHT22;27377;50.666;9.150;2023-06-10T01:08:23;13.20;99.90
41694;DHT22;27377;50.666;9.150;2023-06-10T01:10:57;13.10;99.90
41694;DHT22;27377;50.666;9.150;2023-06-10T01:13:25;13.10;99.90
41694;DHT22;27377;50.666;9.150;2023-06-10T01:15:54;13.10;99.90
41694;DHT22;27377;50.666;9.150;2023-06-10T01:18:20;13.00;99.90
41694;DHT22;27377;50.666;9.150;2023-06-10T01:20:47;12.90;99.90
41694;DHT22;27377;50.666;9.150;2023-06-10T01:23:14;12.90;99.90
41694;DHT22;27377;50.666;9.150;2023-06-10T01:25:53;12.80;99.90
41694;DHT22;27377;50.666;9.150;2023-06-10T01:28:31;12.90;99.90
41694;DHT22;27377;50.666;9.150;2023-06-10T01:33:42;12.90;99.90
41694;DHT22;27377;50.666;9.150;2023-06-10T01:36:09;12.90;99.90
41694;DHT22;27377;50.666;9.150;2023-06-10T01:38:43;12.90;99.90
41694;DHT22;27377;50.666;9.150;2023-06-10T01:41:10;12.90;99.90
41694;DHT22;27377;50.666;9.150;2023-06-10T01:43:38;12.90;99.90
41694;DHT22;27377;50.666;9.150;2023-06-10T01:46:04;12.90;99.90
41694;DHT22;27377;50.666;9.150;2023-06-10T01:48:29;12.90;99.90
41694;DHT22;27377;50.666;9.150;2023-06-10T01:50:55;12.80;99.90
41694;DHT22;27377;50.666;9.150;2023-06-10T01:53:23;12.70;99.90
41694;DHT22;27377;50.666;9.150;2023-06-10T01:55:49;12.60;99.90
41694;DHT22;27377;50.666;9.150;2023-06-10T01:58:15;12.60;99.90
41694;DHT22;27377;50.666;9.150;2023-06-10T02:00:40;12.50;99.90
41694;DHT22;27377;50.666;9.150;2023-06-10T02:03:06;12.50;99.90
41694;DHT22;27377;50.666;9.150;2023-06-10T02:05:31;12.50;99.90
41694;DHT22;27377;50.666;9.150;2023-06-10T02:07:57;12.50;99.90
41694;DHT22;27377;50.666;9.150;2023-06-10T02:10:23;12.60;99.90
41694;DHT22;27377;50.666;9.150;2023-06-10T02:12:49;12.60;99.90
41694;DHT22;27377;50.666;9.150;2023-06-10T02:15:14;12.50;99.90
41694;DHT22;27377;50.666;9.150;2023-06-10T02:17:40;12.50;99.90
41694;DHT22;27377;50.666;9.150;2023-06-10T02:20:06;12.40;99.90
41694;DHT22;27377;50.666;9.150;2023-06-10T02:22:33;12.30;99.90
41694;DHT22;27377;50.666;9.150;2023-06-10T02:24:59;12.30;99.90
41694;DHT22;27377;50.666;9.150;2023-06-10T02:27:24;12.30;99.90
41694;DHT22;27377;50.666;9.150;2023-06-10T02:29:50;12.30;99.90
41694;DHT22;27377;50.666;9.150;2023-06-10T02:32:16;12.40;99.90
41694;DHT22;27377;50.666;9.150;2023-06-10T02:34:42;12.50;99.90
41694;DHT22;27377;50.666;9.150;2023-06-10T02:37:11;12.50;99.90
41694;DHT22;27377;50.666;9.150;2023-06-10T02:39:36;12.50;99.90
41694;DHT22;27377;50.666;9.150;2023-06-10T02:42:02;12.50;99.90
41694;DHT22;27377;50.666;9.150;2023-06-10T02:44:28;12.40;99.90
41694;DHT22;27377;50.666;9.150;2023-06-10T02:46:53;12.30;99.90
41694;DHT22;27377;50.666;9.150;2023-06-10T02:49:19;12.20;99.90
41694;DHT22;27377;50.666;9.150;2023-06-10T02:51:44;12.20;99.90
41694;DHT22;27377;50.666;9.150;2023-06-10T02:54:10;12.20;99.90
41694;DHT22;27377;50.666;9.150;2023-06-10T02:56:35;12.20;99.90
41694;DHT22;27377;50.666;9.150;2023-06-10T02:59:01;12.30;99.90
41694;DHT22;27377;50.666;9.150;2023-06-10T03:01:27;12.30;99.90
41694;DHT22;27377;50.666;9.150;2023-06-10T03:03:53;12.40;99.90
41694;DHT22;27377;50.666;9.150;2023-06-10T03:06:18;12.40;99.90
41694;DHT22;27377;50.666;9.150;2023-06-10T03:08:44;12.40;99.90
41694;DHT22;27377;50.666;9.150;2023-06-10T03:11:11;12.30;99.90
41694;DHT22;27377;50.666;9.150;2023-06-10T03:13:38;12.20;99.90
41694;DHT22;27377;50.666;9.150;2023-06-10T03:16:04;12.30;99.90
41694;DHT22;27377;50.666;9.150;2023-06-10T03:18:30;12.30;99.90
41694;DHT22;27377;50.666;9.150;2023-06-10T03:20:55;12.30;99.90
41694;DHT22;27377;50.666;9.150;2023-06-10T03:23:22;12.30;99.90
41694;DHT22;27377;50.666;9.150;2023-06-10T03:25:48;12.30;99.90
41694;DHT22;27377;50.666;9.150;2023-06-10T03:28:13;12.20;99.90
41694;DHT22;27377;50.666;9.150;2023-06-10T03:30:39;12.20;99.90
41694;DHT22;27377;50.666;9.150;2023-06-10T03:33:05;12.20;99.90
41694;DHT22;27377;50.666;9.150;2023-06-10T03:35:31;12.20;99.90
41694;DHT22;27377;50.666;9.150;2023-06-10T03:37:58;12.20;99.90
41694;DHT22;27377;50.666;9.150;2023-06-10T03:40:23;12.20;99.90
41694;DHT22;27377;50.666;9.150;2023-06-10T03:42:49;12.20;99.90
41694;DHT22;27377;50.666;9.150;2023-06-10T03:45:15;12.20;99.90
41694;DHT22;27377;50.666;9.150;2023-06-10T03:47:40;12.20;99.90
41694;DHT22;27377;50.666;9.150;2023-06-10T03:50:07;12.20;99.90
41694;DHT22;27377;50.666;9.150;2023-06-10T03:52:34;12.30;99.90
41694;DHT22;27377;50.666;9.150;2023-06-10T03:54:59;12.20;99.90
41694;DHT22;27377;50.666;9.150;2023-06-10T03:57:25;12.20;99.90
41694;DHT22;27377;50.666;9.150;2023-06-10T03:59:51;12.10;99.90
41694;DHT22;27377;50.666;9.150;2023-06-10T04:02:16;12.10;99.90
41694;DHT22;27377;50.666;9.150;2023-06-10T04:04:43;12.00;99.90
41694;DHT22;27377;50.666;9.150;2023-06-10T04:07:08;12.10;99.90
41694;DHT22;27377;50.666;9.150;2023-06-10T04:09:34;12.20;99.90
41694;DHT22;27377;50.666;9.150;2023-06-10T04:12:01;12.20;99.90
41694;DHT22;27377;50.666;9.150;2023-06-10T04:14:27;12.10;99.90
41694;DHT22;27377;50.666;9.150;2023-06-10T04:16:53;12.20;99.90
41694;DHT22;27377;50.666;9.150;2023-06-10T04:19:18;12.10;99.90
41694;DHT22;27377;50.666;9.150;2023-06-10T04:21:44;12.10;99.90
41694;DHT22;27377;50.666;9.150;2023-06-10T04:24:09;12.10;99.90
41694;DHT22;27377;50.666;9.150;2023-06-10T04:26:35;12.10;99.90
41694;DHT22;27377;50.666;9.150;2023-06-10T04:29:01;12.10;99.90
41694;DHT22;27377;50.666;9.150;2023-06-10T04:31:27;12.10;99.90
41694;DHT22;27377;50.666;9.150;2023-06-10T04:33:53;12.20;99.90
41694;DHT22;27377;50.666;9.150;2023-06-10T04:36:18;12.20;99.90
41694;DHT22;27377;50.666;9.150;2023-06-10T04:38:44;12.30;99.90
41694;DHT22;27377;50.666;9.150;2023-06-10T04:41:10;12.40;99.90
41694;DHT22;27377;50.666;9.150;2023-06-10T04:43:35;12.40;99.90
41694;DHT22;27377;50.666;9.150;2023-06-10T04:46:01;12.50;99.90
41694;DHT22;27377;50.666;9.150;2023-06-10T04:48:27;12.50;99.90
41694;DHT22;27377;50.666;9.150;2023-06-10T04:50:52;12.60;99.90
41694;DHT22;27377;50.666;9.150;2023-06-10T04:53:18;12.60;99.90
41694;DHT22;27377;50.666;9.150;2023-06-10T04:55:44;12.70;99.90
41694;DHT22;27377;50.666;9.150;2023-06-10T04:58:09;12.70;99.90
41694;DHT22;27377;50.666;9.150;2023-06-10T05:00:35;12.70;99.90
41694;DHT22;27377;50.666;9.150;2023-06-10T05:03:01;12.80;99.90
41694;DHT22;27377;50.666;9.150;2023-06-10T05:05:26;12.80;99.90
41694;DHT22;27377;50.666;9.150;2023-06-10T05:07:52;12.90;99.90
41694;DHT22;27377;50.666;9.150;2023-06-10T05:10:17;13.00;99.90
41694;DHT22;27377;50.666;9.150;2023-06-10T05:12:43;13.10;99.90
41694;DHT22;27377;50.666;9.150;2023-06-10T05:15:08;13.10;99.90
41694;DHT22;27377;50.666;9.150;2023-06-10T05:17:34;13.20;99.90
41694;DHT22;27377;50.666;9.150;2023-06-10T05:20:03;13.30;99.90
41694;DHT22;27377;50.666;9.150;2023-06-10T05:22:35;13.40;99.90
41694;DHT22;27377;50.666;9.150;2023-06-10T05:25:00;13.40;99.90
41694;DHT22;27377;50.666;9.150;2023-06-10T05:27:26;13.50;99.90
41694;DHT22;27377;50.666;9.150;2023-06-10T05:29:51;13.60;99.90
41694;DHT22;27377;50.666;9.150;2023-06-10T05:32:17;13.70;99.90
41694;DHT22;27377;50.666;9.150;2023-06-10T05:34:45;13.80;99.90
41694;DHT22;27377;50.666;9.150;2023-06-10T05:37:15;13.80;99.90
41694;DHT22;27377;50.666;9.150;2023-06-10T05:39:40;13.90;99.90
41694;DHT22;27377;50.666;9.150;2023-06-10T05:42:07;14.00;99.90
41694;DHT22;27377;50.666;9.150;2023-06-10T05:44:33;14.10;99.90
41694;DHT22;27377;50.666;9.150;2023-06-10T05:46:59;14.10;99.90
41694;DHT22;27377;50.666;9.150;2023-06-10T05:49:25;14.20;99.90
41694;DHT22;27377;50.666;9.150;2023-06-10T05:51:50;14.30;99.90
41694;DHT22;27377;50.666;9.150;2023-06-10T05:54:18;14.40;99.90
41694;DHT22;27377;50.666;9.150;2023-06-10T05:56:44;14.40;99.90
41694;DHT22;27377;50.666;9.150;2023-06-10T05:59:11;14.50;99.90
41694;DHT22;27377;50.666;9.150;2023-06-10T06:01:37;14.60;99.90
41694;DHT22;27377;50.666;9.150;2023-06-10T06:04:02;14.70;99.90
41694;DHT22;27377;50.666;9.150;2023-06-10T06:06:28;14.80;99.90
41694;DHT22;27377;50.666;9.150;2023-06-10T06:08:53;14.80;99.90
41694;DHT22;27377;50.666;9.150;2023-06-10T06:11:19;14.90;99.90
41694;DHT22;27377;50.666;9.150;2023-06-10T06:13:44;15.00;99.90
41694;DHT22;27377;50.666;9.150;2023-06-10T06:16:10;15.10;99.90
41694;DHT22;27377;50.666;9.150;2023-06-10T06:18:36;15.10;99.90
41694;DHT22;27377;50.666;9.150;2023-06-10T06:21:02;15.20;99.90
41694;DHT22;27377;50.666;9.150;2023-06-10T06:23:31;15.30;99.90
41694;DHT22;27377;50.666;9.150;2023-06-10T06:25:56;15.30;99.90
41694;DHT22;27377;50.666;9.150;2023-06-10T06:28:22;15.40;99.90
41694;DHT22;27377;50.666;9.150;2023-06-10T06:30:48;15.40;99.90
41694;DHT22;27377;50.666;9.150;2023-06-10T06:33:13;15.50;99.90
41694;DHT22;27377;50.666;9.150;2023-06-10T06:35:39;15.60;99.90
41694;DHT22;27377;50.666;9.150;2023-06-10T06:38:05;15.60;99.90
41694;DHT22;27377;50.666;9.150;2023-06-10T06:40:31;15.70;99.90
41694;DHT22;27377;50.666;9.150;2023-06-10T06:42:56;15.80;99.90
41694;DHT22;27377;50.666;9.150;2023-06-10T06:45:22;15.80;99.90
41694;DHT22;27377;50.666;9.150;2023-06-10T06:47:47;15.80;99.90
41694;DHT22;27377;50.666;9.150;2023-06-10T06:50:13;15.90;99.90
41694;DHT22;27377;50.666;9.150;2023-06-10T06:52:39;15.90;99.90
41694;DHT22;27377;50.666;9.150;2023-06-10T06:55:05;16.00;99.90
41694;DHT22;27377;50.666;9.150;2023-06-10T06:57:32;16.10;99.90
41694;DHT22;27377;50.666;9.150;2023-06-10T06:59:58;16.10;99.90
41694;DHT22;27377;50.666;9.150;2023-06-10T07:02:24;16.20;99.90
41694;DHT22;27377;50.666;9.150;2023-06-10T07:04:50;16.20;99.90
41694;DHT22;27377;50.666;9.150;2023-06-10T07:07:16;16.30;99.90
41694;DHT22;27377;50.666;9.150;2023-06-10T07:09:41;16.40;99.90
41694;DHT22;27377;50.666;9.150;2023-06-10T07:12:07;16.40;99.90
41694;DHT22;27377;50.666;9.150;2023-06-10T07:14:33;16.50;99.90
41694;DHT22;27377;50.666;9.150;2023-06-10T07:16:59;16.50;99.90
41694;DHT22;27377;50.666;9.150;2023-06-10T07:19:25;16.60;99.90
41694;DHT22;27377;50.666;9.150;2023-06-10T07:21:50;16.70;99.90
41694;DHT22;27377;50.666;9.150;2023-06-10T07:24:16;16.70;99.90
41694;DHT22;27377;50.666;9.150;2023-06-10T07:26:41;16.80;99.90
41694;DHT22;27377;50.666;9.150;2023-06-10T07:29:07;16.80;99.90
41694;DHT22;27377;50.666;9.150;2023-06-10T07:31:33;16.90;99.90
41694;DHT22;27377;50.666;9.150;2023-06-10T07:33:58;17.00;99.90
41694;DHT22;27377;50.666;9.150;2023-06-10T07:36:24;17.00;99.90
41694;DHT22;27377;50.666;9.150;2023-06-10T07:38:53;17.10;99.90
41694;DHT22;27377;50.666;9.150;2023-06-10T07:41:18;17.20;99.90
41694;DHT22;27377;50.666;9.150;2023-06-10T07:43:44;17.20;99.90
41694;DHT22;27377;50.666;9.150;2023-06-10T07:46:10;17.30;99.90
41694;DHT22;27377;50.666;9.150;2023-06-10T07:48:36;17.40;99.90
41694;DHT22;27377;50.666;9.150;2023-06-10T07:51:01;17.40;99.90
41694;DHT22;27377;50.666;9.150;2023-06-10T07:53:27;17.50;99.90
41694;DHT22;27377;50.666;9.150;2023-06-10T07:55:53;17.50;99.90
41694;DHT22;27377;50.666;9.150;2023-06-10T07:58:19;17.60;99.90
41694;DHT22;27377;50.666;9.150;2023-06-10T08:00:44;17.60;99.90
41694;DHT22;27377;50.666;9.150;2023-06-10T08:03:10;17.70;99.90
41694;DHT22;27377;50.666;9.150;2023-06-10T08:05:35;17.80;99.90
41694;DHT22;27377;50.666;9.150;2023-06-10T08:08:01;17.80;99.90
41694;DHT22;27377;50.666;9.150;2023-06-10T08:10:26;17.90;99.90
41694;DHT22;27377;50.666;9.150;2023-06-10T08:12:52;17.90;99.90
41694;DHT22;27377;50.666;9.150;2023-06-10T08:15:17;17.90;99.90
41694;DHT22;27377;50.666;9.150;2023-06-10T08:17:43;17.90;99.90
41694;DHT22;27377;50.666;9.150;2023-06-10T08:20:10;18.00;99.90
41694;DHT22;27377;50.666;9.150;2023-06-10T08:22:35;18.10;99.90
41694;DHT22;27377;50.666;9.150;2023-06-10T08:25:01;18.10;99.90
41694;DHT22;27377;50.666;9.150;2023-06-10T08:27:26;18.20;99.90
41694;DHT22;27377;50.666;9.150;2023-06-10T08:29:52;18.20;99.90
41694;DHT22;27377;50.666;9.150;2023-06-10T08:32:21;18.30;99.90
41694;DHT22;27377;50.666;9.150;2023-06-10T08:34:47;18.30;99.90
41694;DHT22;27377;50.666;9.150;2023-06-10T08:37:13;18.30;99.90
41694;DHT22;27377;50.666;9.150;2023-06-10T08:39:39;18.40;99.90
41694;DHT22;27377;50.666;9.150;2023-06-10T08:42:25;18.40;99.90
41694;DHT22;27377;50.666;9.150;2023-06-10T08:44:54;18.50;99.90
41694;DHT22;27377;50.666;9.150;2023-06-10T08:47:25;18.50;99.90
41694;DHT22;27377;50.666;9.150;2023-06-10T08:49:51;18.60;99.90
41694;DHT22;27377;50.666;9.150;2023-06-10T08:52:22;18.60;99.90
41694;DHT22;27377;50.666;9.150;2023-06-10T08:55:00;18.60;99.90
41694;DHT22;27377;50.666;9.150;2023-06-10T08:57:28;18.70;99.90
41694;DHT22;27377;50.666;9.150;2023-06-10T08:59:57;18.80;99.90
41694;DHT22;27377;50.666;9.150;2023-06-10T09:02:25;18.80;99.90
41694;DHT22;27377;50.666;9.150;2023-06-10T09:04:52;18.90;99.90
41694;DHT22;27377;50.666;9.150;2023-06-10T09:07:18;19.00;99.90
41694;DHT22;27377;50.666;9.150;2023-06-10T09:09:44;19.00;99.90
41694;DHT22;27377;50.666;9.150;2023-06-10T09:12:14;19.00;99.90
41694;DHT22;27377;50.666;9.150;2023-06-10T09:14:42;19.10;99.90
41694;DHT22;27377;50.666;9.150;2023-06-10T09:17:07;19.20;99.90
41694;DHT22;27377;50.666;9.150;2023-06-10T09:19:35;19.20;99.90
41694;DHT22;27377;50.666;9.150;2023-06-10T09:22:01;19.30;99.90
41694;DHT22;27377;50.666;9.150;2023-06-10T09:24:27;19.30;99.90
41694;DHT22;27377;50.666;9.150;2023-06-10T09:27:05;19.40;99.90
41694;DHT22;27377;50.666;9.150;2023-06-10T09:29:44;19.40;99.90
41694;DHT22;27377;50.666;9.150;2023-06-10T09:32:10;19.40;99.90
41694;DHT22;27377;50.666;9.150;2023-06-10T09:34:36;19.50;99.90
41694;DHT22;27377;50.666;9.150;2023-06-10T09:37:02;19.50;99.90
41694;DHT22;27377;50.666;9.150;2023-06-10T09:39:27;19.60;99.90
41694;DHT22;27377;50.666;9.150;2023-06-10T09:41:53;19.60;99.90
41694;DHT22;27377;50.666;9.150;2023-06-10T09:44:20;19.60;99.90
41694;DHT22;27377;50.666;9.150;2023-06-10T09:46:48;19.60;99.90
41694;DHT22;27377;50.666;9.150;2023-06-10T09:49:21;19.70;99.90
41694;DHT22;27377;50.666;9.150;2023-06-10T09:51:54;19.70;99.90
41694;DHT22;27377;50.666;9.150;2023-06-10T09:54:21;19.70;99.90
41694;DHT22;27377;50.666;9.150;2023-06-10T09:56:48;19.80;99.90
41694;DHT22;27377;50.666;9.150;2023-06-10T09:59:14;19.80;99.90
41694;DHT22;27377;50.666;9.150;2023-06-10T10:01:40;19.90;99.90
41694;DHT22;27377;50.666;9.150;2023-06-10T10:04:06;19.90;99.90
41694;DHT22;27377;50.666;9.150;2023-06-10T10:06:31;20.00;99.90
41694;DHT22;27377;50.666;9.150;2023-06-10T10:08:57;20.10;99.90
41694;DHT22;27377;50.666;9.150;2023-06-10T10:11:23;20.10;99.90
41694;DHT22;27377;50.666;9.150;2023-06-10T10:13:51;20.00;99.90
41694;DHT22;27377;50.666;9.150;2023-06-10T10:16:36;20.10;99.90
41694;DHT22;27377;50.666;9.150;2023-06-10T10:19:16;20.10;99.90
41694;DHT22;27377;50.666;9.150;2023-06-10T10:21:53;20.20;99.90
41694;DHT22;27377;50.666;9.150;2023-06-10T10:24:21;20.20;99.90
41694;DHT22;27377;50.666;9.150;2023-06-10T10:26:50;20.30;99.90
41694;DHT22;27377;50.666;9.150;2023-06-10T10:29:31;20.40;99.90
41694;DHT22;27377;50.666;9.150;2023-06-10T10:31:59;20.30;99.90
41694;DHT22;27377;50.666;9.150;2023-06-10T10:37:36;20.40;99.90
41694;DHT22;27377;50.666;9.150;2023-06-10T10:40:02;20.50;99.90
41694;DHT22;27377;50.666;9.150;2023-06-10T10:42:29;20.50;99.90
41694;DHT22;27377;50.666;9.150;2023-06-10T10:44:55;20.50;99.90
41694;DHT22;27377;50.666;9.150;2023-06-10T10:47:22;20.50;99.90
41694;DHT22;27377;50.666;9.150;2023-06-10T10:49:51;20.60;99.90
41694;DHT22;27377;50.666;9.150;2023-06-10T10:52:20;20.60;99.90
41694;DHT22;27377;50.666;9.150;2023-06-10T10:54:46;20.60;99.90
41694;DHT22;27377;50.666;9.150;2023-06-10T10:57:14;20.60;99.90
41694;DHT22;27377;50.666;9.150;2023-06-10T10:59:52;20.70;99.90
41694;DHT22;27377;50.666;9.150;2023-06-10T11:02:34;20.70;99.90
41694;DHT22;27377;50.666;9.150;2023-06-10T11:05:01;20.70;99.90
41694;DHT22;27377;50.666;9.150;2023-06-10T11:07:29;20.70;99.90
41694;DHT22;27377;50.666;9.150;2023-06-10T11:10:11;20.80;99.90
41694;DHT22;27377;50.666;9.150;2023-06-10T11:15:12;20.90;99.90
41694;DHT22;27377;50.666;9.150;2023-06-10T11:18:11;20.90;99.90
41694;DHT22;27377;50.666;9.150;2023-06-10T11:20:51;21.00;99.90
41694;DHT22;27377;50.666;9.150;2023-06-10T11:33:57;21.20;99.90
41694;DHT22;27377;50.666;9.150;2023-06-10T11:36:24;21.20;99.90
41694;DHT22;27377;50.666;9.150;2023-06-10T11:38:54;21.20;99.90
41694;DHT22;27377;50.666;9.150;2023-06-10T11:41:21;21.30;99.90
41694;DHT22;27377;50.666;9.150;2023-06-10T11:43:47;21.30;99.90
41694;DHT22;27377;50.666;9.150;2023-06-10T11:46:15;21.40;99.90
41694;DHT22;27377;50.666;9.150;2023-06-10T11:48:55;21.40;99.90
41694;DHT22;27377;50.666;9.150;2023-06-10T11:51:21;21.50;99.90
41694;DHT22;27377;50.666;9.150;2023-06-10T11:53:50;21.40;99.90
41694;DHT22;27377;50.666;9.150;2023-06-10T11:56:22;21.50;99.90
41694;DHT22;27377;50.666;9.150;2023-06-10T11:58:57;21.40;99.90
41694;DHT22;27377;50.666;9.150;2023-06-10T12:01:25;21.50;99.90
41694;DHT22;27377;50.666;9.150;2023-06-10T12:04:03;21.50;99.90
41694;DHT22;27377;50.666;9.150;2023-06-10T12:06:43;21.60;99.90
41694;DHT22;27377;50.666;9.150;2023-06-10T12:09:23;21.60;99.90
41694;DHT22;27377;50.666;9.150;2023-06-10T12:11:57;21.60;99.90
41694;DHT22;27377;50.666;9.150;2023-06-10T12:14:52;21.70;99.90
41694;DHT22;27377;50.666;9.150;2023-06-10T12:17:36;21.70;99.90
41694;DHT22;27377;50.666;9.150;2023-06-10T12:20:29;21.70;99.90
41694;DHT22;27377;50.666;9.150;2023-06-10T12:22:55;21.70;99.90
41694;DHT22;27377;50.666;9.150;2023-06-10T12:25:28;21.70;99.90
41694;DHT22;27377;50.666;9.150;2023-06-10T12:27:57;21.80;99.90
41694;DHT22;27377;50.666;9.150;2023-06-10T12:30:27;21.80;99.90
41694;DHT22;27377;50.666;9.150;2023-06-10T12:32:53;21.80;99.90
41694;DHT22;27377;50.666;9.150;2023-06-10T12:35:23;21.90;99.90
41694;DHT22;27377;50.666;9.150;2023-06-10T12:37:59;21.90;99.90
41694;DHT22;27377;50.666;9.150;2023-06-10T12:40:48;21.90;99.90
41694;DHT22;27377;50.666;9.150;2023-06-10T12:43:21;21.90;99.90
41694;DHT22;27377;50.666;9.150;2023-06-10T12:45:47;21.90;99.90
41694;DHT22;27377;50.666;9.150;2023-06-10T12:48:23;21.90;99.90
41694;DHT22;27377;50.666;9.150;2023-06-10T12:50:57;22.00;99.90
41694;DHT22;27377;50.666;9.150;2023-06-10T12:53:24;22.00;99.90
41694;DHT22;27377;50.666;9.150;2023-06-10T12:55:52;22.00;99.90
41694;DHT22;27377;50.666;9.150;2023-06-10T12:58:20;22.10;99.90
41694;DHT22;27377;50.666;9.150;2023-06-10T13:00:47;22.10;99.90
41694;DHT22;27377;50.666;9.150;2023-06-10T13:03:14;22.10;99.90
41694;DHT22;27377;50.666;9.150;2023-06-10T13:05:40;22.20;99.90
41694;DHT22;27377;50.666;9.150;2023-06-10T13:08:07;22.20;99.90
41694;DHT22;27377;50.666;9.150;2023-06-10T13:10:34;22.20;99.90
41694;DHT22;27377;50.666;9.150;2023-06-10T13:13:01;22.20;99.90
41694;DHT22;27377;50.666;9.150;2023-06-10T13:15:27;22.10;99.90
41694;DHT22;27377;50.666;9.150;2023-06-10T13:17:53;22.10;99.90
41694;DHT22;27377;50.666;9.150;2023-06-10T13:20:19;22.20;99.90
41694;DHT22;27377;50.666;9.150;2023-06-10T13:22:45;22.20;99.90
41694;DHT22;27377;50.666;9.150;2023-06-10T13:25:12;22.20;99.90
41694;DHT22;27377;50.666;9.150;2023-06-10T13:27:38;22.20;99.90
41694;DHT22;27377;50.666;9.150;2023-06-10T13:30:08;22.30;99.90
41694;DHT22;27377;50.666;9.150;2023-06-10T13:32:34;22.30;99.90
41694;DHT22;27377;50.666;9.150;2023-06-10T13:35:00;22.30;99.90
41694;DHT22;27377;50.666;9.150;2023-06-10T13:37:25;22.30;99.90
41694;DHT22;27377;50.666;9.150;2023-06-10T13:39:51;22.30;99.90
41694;DHT22;27377;50.666;9.150;2023-06-10T13:42:17;22.40;99.90
41694;DHT22;27377;50.666;9.150;2023-06-10T13:44:43;22.40;99.90
41694;DHT22;27377;50.666;9.150;2023-06-10T13:47:09;22.40;99.90
41694;DHT22;27377;50.666;9.150;2023-06-10T13:49:34;22.40;99.90
41694;DHT22;27377;50.666;9.150;2023-06-10T13:52:01;22.40;99.90
41694;DHT22;27377;50.666;9.150;2023-06-10T13:54:26;22.50;99.90
41694;DHT22;27377;50.666;9.150;2023-06-10T13:56:52;22.50;99.90
41694;DHT22;27377;50.666;9.150;2023-06-10T13:59:19;22.60;99.90
41694;DHT22;27377;50.666;9.150;2023-06-10T14:01:45;22.60;99.90
41694;DHT22;27377;50.666;9.150;2023-06-10T14:04:11;22.60;99.90
41694;DHT22;27377;50.666;9.150;2023-06-10T14:06:36;22.60;99.90
41694;DHT22;27377;50.666;9.150;2023-06-10T14:09:02;22.60;99.90
41694;DHT22;27377;50.666;9.150;2023-06-10T14:11:27;22.60;99.90
41694;DHT22;27377;50.666;9.150;2023-06-10T14:13:53;22.60;99.90
41694;DHT22;27377;50.666;9.150;2023-06-10T14:16:21;22.60;99.90
41694;DHT22;27377;50.666;9.150;2023-06-10T14:18:47;22.60;99.90
41694;DHT22;27377;50.666;9.150;2023-06-10T14:21:12;22.70;99.90
41694;DHT22;27377;50.666;9.150;2023-06-10T14:23:38;22.70;99.90
41694;DHT22;27377;50.666;9.150;2023-06-10T14:26:03;22.70;99.90
41694;DHT22;27377;50.666;9.150;2023-06-10T14:28:31;22.70;99.90
41694;DHT22;27377;50.666;9.150;2023-06-10T14:30:56;22.70;99.90
41694;DHT22;27377;50.666;9.150;2023-06-10T14:33:23;22.70;99.90
41694;DHT22;27377;50.666;9.150;2023-06-10T14:35:48;22.70;99.90
41694;DHT22;27377;50.666;9.150;2023-06-10T14:38:14;22.80;99.90
41694;DHT22;27377;50.666;9.150;2023-06-10T14:40:39;22.80;99.90
41694;DHT22;27377;50.666;9.150;2023-06-10T14:43:05;22.90;99.90
41694;DHT22;27377;50.666;9.150;2023-06-10T14:45:41;22.90;99.90
41694;DHT22;27377;50.666;9.150;2023-06-10T14:48:07;22.90;99.90
41694;DHT22;27377;50.666;9.150;2023-06-10T14:50:37;22.90;99.90
41694;DHT22;27377;50.666;9.150;2023-06-10T14:53:03;22.90;99.90
41694;DHT22;27377;50.666;9.150;2023-06-10T14:55:28;23.00;99.90
41694;DHT22;27377;50.666;9.150;2023-06-10T14:57:54;23.00;99.90
41694;DHT22;27377;50.666;9.150;2023-06-10T15:00:20;23.00;99.90
41694;DHT22;27377;50.666;9.150;2023-06-10T15:02:48;23.00;99.90
41694;DHT22;27377;50.666;9.150;2023-06-10T15:05:14;23.00;99.90
41694;DHT22;27377;50.666;9.150;2023-06-10T15:07:41;23.00;99.90
41694;DHT22;27377;50.666;9.150;2023-06-10T15:10:07;23.00;99.90
41694;DHT22;27377;50.666;9.150;2023-06-10T15:12:33;23.10;99.90
41694;DHT22;27377;50.666;9.150;2023-06-10T15:14:59;23.10;99.90
41694;DHT22;27377;50.666;9.150;2023-06-10T15:17:24;23.10;99.90
41694;DHT22;27377;50.666;9.150;2023-06-10T15:19:50;23.10;99.90
41694;DHT22;27377;50.666;9.150;2023-06-10T15:22:16;23.10;99.90
41694;DHT22;27377;50.666;9.150;2023-06-10T15:24:42;23.10;99.90
41694;DHT22;27377;50.666;9.150;2023-06-10T15:27:08;23.10;99.90
41694;DHT22;27377;50.666;9.150;2023-06-10T15:29:33;23.10;99.90
41694;DHT22;27377;50.666;9.150;2023-06-10T15:31:59;23.10;99.90
41694;DHT22;27377;50.666;9.150;2023-06-10T15:34:24;23.20;99.90
41694;DHT22;27377;50.666;9.150;2023-06-10T15:36:50;23.20;99.90
41694;DHT22;27377;50.666;9.150;2023-06-10T15:39:16;23.20;99.90
41694;DHT22;27377;50.666;9.150;2023-06-10T15:41:41;23.20;99.90
41694;DHT22;27377;50.666;9.150;2023-06-10T15:44:07;23.20;99.90
41694;DHT22;27377;50.666;9.150;2023-06-10T15:46:32;23.20;99.90
41694;DHT22;27377;50.666;9.150;2023-06-10T15:48:59;23.20;99.90
41694;DHT22;27377;50.666;9.150;2023-06-10T15:51:25;23.20;99.90